Time;durP1;ratioP1;P1;durP2;ratioP2;P2;SDS_P1;SDS_P2;PMS_P1;PMS_P2;Temp;Humidity;BMP_temperature;BMP_pressure;BME280_temperature;BME280_humidity;BME280_pressure;Samples;Min_cycle;Max_cycle;Signal;HPM_P1;HPM_P2
2023/01/11 00:01:42;;;;;;;6.93;2.58;;;;;;;4.26;100.00;100433.06;5019402;28;20230;-43
2023/01/11 00:04:07;;;;;;;6.45;2.50;;;;;;;4.33;100.00;100444.44;5022080;28;20207;-41
2023/01/11 00:06:33;;;;;;;6.97;2.50;;;;;;;4.23;100.00;100443.72;5020672;28;20553;-41
2023/01/11 00:08:59;;;;;;;7.75;2.45;;;;;;;4.25;100.00;100435.75;5011180;28;20172;-42
2023/01/11 00:11:24;;;;;;;7.38;2.75;;;;;;;4.26;100.00;100424.22;5006226;28;20585;-41
2023/01/11 00:13:50;;;;;;;4.47;2.60;;;;;;;4.26;100.00;100422.47;5008544;28;20192;-43
2023/01/11 00:16:15;;;;;;;7.47;2.55;;;;;;;4.36;100.00;100432.88;5014408;28;20193;-42
2023/01/11 00:18:41;;;;;;;8.18;2.47;;;;;;;4.36;100.00;100419.63;5007482;28;20550;-43
2023/01/11 00:21:07;;;;;;;4.43;2.47;;;;;;;4.34;100.00;100419.66;5013789;28;20673;-42
2023/01/11 00:23:34;;;;;;;5.50;3.05;;;;;;;4.31;100.00;100417.94;5019226;28;20189;-41
2023/01/11 00:26:04;;;;;;;6.03;2.70;;;;;;;4.36;100.00;100407.22;5020711;28;20215;-43
2023/01/11 00:28:30;;;;;;;7.65;2.75;;;;;;;4.37;100.00;100393.03;5003751;28;20181;-41
2023/01/11 00:30:56;;;;;;;7.20;3.15;;;;;;;4.41;100.00;100386.78;5013588;28;20189;-42
2023/01/11 00:33:21;;;;;;;7.97;3.10;;;;;;;4.43;100.00;100382.31;5008810;28;20188;-43
2023/01/11 00:35:50;;;;;;;5.53;2.90;;;;;;;4.43;100.00;100387.63;5013306;28;20224;-42
2023/01/11 00:38:42;;;;;;;8.15;3.10;;;;;;;4.44;100.00;100381.44;5006709;28;20195;-42
2023/01/11 00:47:55;;;;;;;7.78;3.00;;;;;;;4.49;100.00;100382.22;5014654;28;20189;-43
2023/01/11 00:49:15;;;;;;;7.13;3.25;;;;;;;4.51;100.00;100368.91;5020213;28;20694;-40
2023/01/11 00:51:40;;;;;;;7.05;3.42;;;;;;;4.55;100.00;100373.25;5020734;28;20279;-43
2023/01/11 00:54:06;;;;;;;5.80;3.10;;;;;;;4.54;100.00;100376.81;5023606;28;20197;-42
2023/01/11 00:56:31;;;;;;;5.18;3.47;;;;;;;4.56;100.00;100360.84;5013123;28;20183;-42
2023/01/11 00:58:57;;;;;;;5.88;3.10;;;;;;;4.57;100.00;100351.97;5007060;28;20223;-42
2023/01/11 01:01:22;;;;;;;4.95;3.38;;;;;;;4.56;100.00;100344.94;5005248;28;20213;-42
2023/01/11 01:03:47;;;;;;;3.97;3.10;;;;;;;4.63;100.00;100339.47;5004121;28;20181;-43
2023/01/11 01:06:13;;;;;;;6.10;3.70;;;;;;;4.64;100.00;100343.00;5011927;28;20188;-43
2023/01/11 01:08:38;;;;;;;7.75;3.05;;;;;;;4.66;100.00;100349.16;5021604;28;20192;-43
2023/01/11 01:18:39;;;;;;;9.90;3.72;;;;;;;4.79;100.00;100326.75;5003867;28;20742;-46
2023/01/11 01:21:13;;;;;;;4.85;2.97;;;;;;;4.86;100.00;100328.34;5011624;28;20192;-47
2023/01/11 01:23:39;;;;;;;4.95;3.53;;;;;;;4.92;100.00;100324.69;4997825;28;20695;-46
2023/01/11 01:26:05;;;;;;;4.95;3.13;;;;;;;4.93;100.00;100334.38;5004953;28;20207;-47
2023/01/11 01:28:31;;;;;;;8.80;3.40;;;;;;;4.92;100.00;100317.59;5027274;28;20186;-49
2023/01/11 01:30:56;;;;;;;7.40;3.50;;;;;;;4.94;100.00;100306.91;5011539;28;20245;-47
2023/01/11 01:33:22;;;;;;;4.13;3.53;;;;;;;4.97;100.00;100319.25;5018010;28;20328;-46
2023/01/11 01:35:47;;;;;;;6.05;3.53;;;;;;;4.95;100.00;100314.84;5017358;28;20666;-48
2023/01/11 01:38:14;;;;;;;3.90;3.17;;;;;;;4.97;100.00;100300.69;5021427;28;20545;-47
2023/01/11 01:40:41;;;;;;;4.93;3.25;;;;;;;5.02;100.00;100309.41;5020109;28;20200;-47
2023/01/11 01:43:11;;;;;;;4.65;3.50;;;;;;;5.01;100.00;100308.53;5004186;28;20241;-46
2023/01/11 01:45:36;;;;;;;5.20;3.50;;;;;;;5.00;100.00;100303.25;4998176;28;20672;-47
2023/01/11 01:48:04;;;;;;;5.35;3.33;;;;;;;5.01;100.00;100307.63;5005912;28;20176;-47
2023/01/11 01:50:53;;;;;;;4.90;3.08;;;;;;;5.03;100.00;100304.06;4998841;28;20343;-46
2023/01/11 01:53:24;;;;;;;3.53;3.15;;;;;;;5.05;100.00;100301.34;5016156;28;20184;-47
2023/01/11 01:55:54;;;;;;;5.40;3.20;;;;;;;5.08;100.00;100301.28;5019217;28;20640;-48
2023/01/11 01:58:24;;;;;;;5.03;3.40;;;;;;;5.10;100.00;100303.00;5017841;28;20193;-47
2023/01/11 02:00:50;;;;;;;6.35;3.38;;;;;;;5.16;100.00;100302.00;5017390;28;20181;-48
2023/01/11 02:03:19;;;;;;;6.55;3.55;;;;;;;5.18;100.00;100283.34;5014977;28;20253;-47
2023/01/11 02:05:47;;;;;;;4.70;3.50;;;;;;;5.23;100.00;100282.31;5006861;28;20615;-48
2023/01/11 02:08:33;;;;;;;6.60;3.22;;;;;;;5.27;100.00;100296.38;5011050;28;20189;-46
2023/01/11 02:10:59;;;;;;;6.68;3.33;;;;;;;5.35;100.00;100292.63;5006493;28;20184;-47
2023/01/11 02:13:25;;;;;;;5.78;3.53;;;;;;;5.34;100.00;100298.00;5007358;28;20265;-47
2023/01/11 02:16:06;;;;;;;6.30;3.60;;;;;;;5.37;100.00;100289.94;5012857;28;20312;-48
2023/01/11 02:18:34;;;;;;;4.03;3.60;;;;;;;5.42;100.00;100263.25;5013600;28;20605;-48
2023/01/11 02:21:33;;;;;;;4.32;3.47;;;;;;;5.43;100.00;100270.31;5016940;28;20712;-48
2023/01/11 02:24:01;;;;;;;5.13;3.45;;;;;;;5.43;100.00;100262.34;5014635;28;20210;-46
2023/01/11 02:30:23;;;;;;;6.28;3.80;;;;;;;5.53;100.00;100242.56;5002541;28;20180;-47
2023/01/11 02:33:19;;;;;;;7.00;3.13;;;;;;;5.56;100.00;100243.38;5002191;28;20292;-47
2023/01/11 02:35:47;;;;;;;5.88;3.55;;;;;;;5.56;100.00;100239.84;5004788;28;20390;-48
2023/01/11 02:38:22;;;;;;;4.75;3.15;;;;;;;5.57;100.00;100236.28;5004952;28;20419;-48
2023/01/11 02:41:00;;;;;;;5.18;3.25;;;;;;;5.65;100.00;100263.50;5017176;28;20228;-48
2023/01/11 02:46:40;;;;;;;3.88;3.40;;;;;;;5.67;100.00;100243.09;5017970;28;20228;-47
2023/01/11 02:49:14;;;;;;;4.55;3.63;;;;;;;5.66;100.00;100256.41;5013636;28;20555;-47
2023/01/11 02:51:45;;;;;;;4.55;3.40;;;;;;;5.65;100.00;100252.03;5006162;28;20187;-47
2023/01/11 02:54:16;;;;;;;4.80;3.50;;;;;;;5.65;100.00;100247.56;5012120;28;20203;-48
2023/01/11 02:56:45;;;;;;;5.05;4.20;;;;;;;5.66;100.00;100233.34;5006338;28;20658;-48
2023/01/11 02:59:16;;;;;;;4.30;3.65;;;;;;;5.67;100.00;100245.75;5005999;28;20342;-47
2023/01/11 03:01:51;;;;;;;4.00;3.60;;;;;;;5.68;100.00;100225.34;5009706;28;20259;-46
2023/01/11 03:04:36;;;;;;;7.55;4.05;;;;;;;5.70;100.00;100228.84;4981453;28;20632;-48
2023/01/11 03:07:29;;;;;;;5.07;3.92;;;;;;;5.72;100.00;100235.84;5020673;28;20215;-48
2023/01/11 03:10:07;;;;;;;4.43;3.67;;;;;;;5.73;100.00;100232.28;5020413;28;20188;-47
2023/01/11 03:12:50;;;;;;;6.88;4.22;;;;;;;5.78;100.00;100221.53;5022500;28;20173;-46
2023/01/11 03:16:13;;;;;;;7.70;4.22;;;;;;;5.81;100.00;100217.91;5017786;28;20555;-48
2023/01/11 03:18:52;;;;;;;4.65;4.07;;;;;;;5.86;100.00;100221.28;4992728;28;20205;-47
2023/01/11 03:21:37;;;;;;;5.82;4.30;;;;;;;5.85;100.00;100225.75;4990347;28;20187;-49
2023/01/11 03:24:29;;;;;;;7.15;4.30;;;;;;;5.87;100.00;100213.28;5002122;28;20627;-48
2023/01/11 03:27:01;;;;;;;5.50;4.88;;;;;;;5.90;100.00;100217.63;5022308;28;20192;-47
2023/01/11 03:29:52;;;;;;;5.90;4.88;;;;;;;5.95;100.00;100202.47;5021203;28;20193;-50
2023/01/11 03:32:17;;;;;;;7.20;5.03;;;;;;;5.95;100.00;100198.03;5020738;28;20168;-46
2023/01/11 03:34:46;;;;;;;5.90;5.30;;;;;;;6.00;100.00;100178.41;5018370;28;20239;-44
2023/01/11 03:37:19;;;;;;;6.13;5.18;;;;;;;5.97;100.00;100185.56;5013560;28;20185;-47
2023/01/11 03:39:50;;;;;;;5.38;4.82;;;;;;;6.06;100.00;100197.69;5018034;28;20171;-44
2023/01/11 03:42:21;;;;;;;7.15;5.57;;;;;;;6.06;100.00;100186.19;5010900;28;20189;-44
2023/01/11 03:44:52;;;;;;;8.57;5.72;;;;;;;6.04;100.00;100186.25;5006535;28;20703;-45
2023/01/11 03:47:22;;;;;;;7.10;5.35;;;;;;;6.08;100.00;100192.31;5011022;28;20177;-46
2023/01/11 03:49:52;;;;;;;6.57;5.78;;;;;;;6.11;100.00;100173.63;5014678;28;20569;-46
2023/01/11 03:52:24;;;;;;;5.68;5.18;;;;;;;6.14;100.00;100201.00;5014838;28;20172;-44
2023/01/11 03:54:53;;;;;;;5.18;4.75;;;;;;;6.23;100.00;100180.34;5018182;28;20196;-46
2023/01/11 03:57:28;;;;;;;5.22;4.80;;;;;;;6.23;100.00;100188.31;5019742;28;20184;-45
2023/01/11 03:59:53;;;;;;;4.80;4.40;;;;;;;6.27;100.00;100180.19;5022224;28;20200;-45
2023/01/11 04:02:23;;;;;;;5.25;4.85;;;;;;;6.32;100.00;100180.06;5019299;28;20180;-45
2023/01/11 04:04:49;;;;;;;5.25;4.75;;;;;;;6.32;100.00;100183.63;5020092;28;20228;-45
2023/01/11 04:07:15;;;;;;;4.95;4.45;;;;;;;6.34;100.00;100171.13;5001504;28;20212;-44
2023/01/11 04:09:40;;;;;;;4.53;4.15;;;;;;;6.33;100.00;100176.50;5010009;28;20177;-46
2023/01/11 04:12:06;;;;;;;3.92;3.58;;;;;;;6.36;100.00;100198.56;5020371;28;20248;-45
2023/01/11 04:14:32;;;;;;;4.88;4.38;;;;;;;6.36;100.00;100187.91;5002641;28;20205;-47
2023/01/11 04:16:57;;;;;;;4.53;4.20;;;;;;;6.43;100.00;100183.28;5021747;28;20215;-46
2023/01/11 04:19:23;;;;;;;4.13;3.83;;;;;;;6.40;100.00;100191.34;5021432;28;20210;-46
2023/01/11 04:21:48;;;;;;;4.93;3.90;;;;;;;6.40;100.00;100184.22;5016122;28;20185;-48
2023/01/11 04:24:14;;;;;;;4.70;4.30;;;;;;;6.40;100.00;100188.69;5014290;28;20200;-45
2023/01/11 04:26:39;;;;;;;3.90;3.60;;;;;;;6.44;100.00;100178.81;5013481;28;20200;-46
2023/01/11 04:29:05;;;;;;;4.25;3.95;;;;;;;6.45;100.00;100177.88;5007797;28;20177;-45
2023/01/11 04:31:31;;;;;;;3.70;3.40;;;;;;;6.45;100.00;100180.53;5006068;28;20193;-47
2023/01/11 04:33:56;;;;;;;3.97;3.67;;;;;;;6.46;100.00;100182.31;5012657;28;20238;-49
2023/01/11 04:36:23;;;;;;;3.78;3.47;;;;;;;6.46;100.00;100191.16;5010488;28;20560;-44
2023/01/11 04:38:48;;;;;;;3.88;2.85;;;;;;;6.49;100.00;100199.03;5014546;28;20179;-44
2023/01/11 04:43:58;;;;;;;3.40;3.20;;;;;;;6.52;100.00;100193.63;5017917;28;20225;-41
2023/01/11 04:46:23;;;;;;;3.42;3.08;;;;;;;6.57;100.00;100181.03;5017975;28;20226;-43
2023/01/11 04:48:49;;;;;;;3.03;2.80;;;;;;;6.54;100.00;100185.59;5016977;28;20200;-44
2023/01/11 04:51:15;;;;;;;5.10;3.22;;;;;;;6.56;100.00;100181.09;5020597;28;20180;-45
2023/01/11 04:53:41;;;;;;;3.60;3.30;;;;;;;6.55;100.00;100190.84;4999060;28;20177;-43
2023/01/11 04:56:07;;;;;;;3.28;2.97;;;;;;;6.56;100.00;100197.06;4999589;28;20185;-42
2023/01/11 04:58:34;;;;;;;3.45;3.15;;;;;;;6.61;100.00;100187.13;5021505;28;20254;-43
2023/01/11 05:01:06;;;;;;;3.08;2.88;;;;;;;6.62;100.00;100186.19;5016629;28;20286;-44
2023/01/11 05:03:31;;;;;;;2.80;2.60;;;;;;;6.62;100.00;100190.66;5019840;28;20197;-44
2023/01/11 05:05:58;;;;;;;2.83;2.65;;;;;;;6.63;100.00;100187.97;5015638;28;20200;-45
2023/01/11 05:08:25;;;;;;;3.10;2.65;;;;;;;6.68;100.00;100182.47;5014293;28;20238;-46
2023/01/11 05:10:52;;;;;;;2.90;2.70;;;;;;;6.67;100.00;100183.38;5013077;28;20196;-44
2023/01/11 05:13:18;;;;;;;3.40;3.10;;;;;;;6.68;100.00;100186.00;5015719;28;20280;-44
2023/01/11 05:15:44;;;;;;;3.00;2.70;;;;;;;6.74;100.00;100179.63;5011305;28;20216;-44
2023/01/11 05:18:09;;;;;;;3.10;2.90;;;;;;;6.76;100.00;100189.28;5006047;28;20584;-43
2023/01/11 05:20:35;;;;;;;2.80;2.60;;;;;;;6.74;100.00;100192.94;5009752;28;20169;-40
2023/01/11 05:23:00;;;;;;;3.58;3.28;;;;;;;6.75;100.00;100184.00;5010893;28;20208;-45
2023/01/11 05:25:26;;;;;;;3.67;3.40;;;;;;;6.80;100.00;100190.06;5013230;28;20276;-43
2023/01/11 05:27:51;;;;;;;3.08;2.88;;;;;;;6.84;100.00;100183.69;5014689;28;20546;-42
2023/01/11 05:30:17;;;;;;;3.00;2.80;;;;;;;6.85;100.00;100196.09;5016404;28;20746;-40
2023/01/11 05:32:42;;;;;;;3.40;3.10;;;;;;;6.84;100.00;100185.50;5019568;28;20659;-43
2023/01/11 05:35:10;;;;;;;3.33;3.13;;;;;;;6.83;100.00;100175.78;5017163;28;20209;-42
2023/01/11 05:37:36;;;;;;;3.67;3.38;;;;;;;6.88;100.00;100189.81;5026789;28;20636;-44
2023/01/11 05:40:04;;;;;;;3.53;3.30;;;;;;;6.90;100.00;100186.16;5011991;28;20196;-42
2023/01/11 05:42:29;;;;;;;4.07;3.70;;;;;;;6.93;100.00;100199.41;5010380;28;20188;-44
2023/01/11 05:47:39;;;;;;;4.13;3.83;;;;;;;7.00;100.00;100190.28;5009357;28;20181;-43
2023/01/11 05:50:05;;;;;;;3.47;3.17;;;;;;;6.98;100.00;100192.13;5017812;28;20183;-42
2023/01/11 05:52:30;;;;;;;3.90;3.60;;;;;;;6.99;100.00;100193.84;5018899;28;20180;-42
2023/01/11 05:54:57;;;;;;;4.50;4.20;;;;;;;7.05;100.00;100197.25;5014742;28;20236;-42
2023/01/11 05:57:22;;;;;;;4.20;3.88;;;;;;;7.02;100.00;100203.53;5012929;28;20186;-42
2023/01/11 05:59:48;;;;;;;4.50;4.20;;;;;;;7.09;100.00;100204.22;4990175;28;20181;-41
2023/01/11 06:02:13;;;;;;;5.00;4.07;;;;;;;7.08;100.00;100210.44;5007304;28;20181;-43
2023/01/11 06:04:39;;;;;;;5.18;4.78;;;;;;;7.09;100.00;100209.53;5016727;28;20307;-43
2023/01/11 06:07:05;;;;;;;4.68;4.38;;;;;;;7.08;100.00;100205.13;4997558;28;20296;-42
2023/01/11 06:09:31;;;;;;;4.55;4.25;;;;;;;7.08;100.00;100207.78;5009209;28;20212;-42
2023/01/11 06:11:56;;;;;;;4.68;4.38;;;;;;;7.13;100.00;100212.03;5015866;28;20586;-43
2023/01/11 06:14:22;;;;;;;5.43;4.93;;;;;;;7.11;100.00;100211.22;5022793;28;20577;-43
2023/01/11 06:16:47;;;;;;;5.03;4.63;;;;;;;7.15;100.00;100215.53;5020595;28;20196;-42
2023/01/11 06:19:13;;;;;;;5.50;5.10;;;;;;;7.14;100.00;100207.56;5020129;28;20260;-43
2023/01/11 06:21:38;;;;;;;5.43;4.93;;;;;;;7.12;100.00;100210.28;5011583;28;20605;-43
2023/01/11 06:24:04;;;;;;;5.40;4.95;;;;;;;7.14;100.00;100232.41;5019124;28;20200;-42
2023/01/11 06:26:31;;;;;;;5.45;5.03;;;;;;;7.16;100.00;100232.38;5019658;28;20203;-42
2023/01/11 06:28:56;;;;;;;5.90;5.35;;;;;;;7.16;100.00;100227.03;5009358;28;20177;-43
2023/01/11 06:31:22;;;;;;;5.78;5.20;;;;;;;7.16;100.00;100227.91;5023800;28;20191;-40
2023/01/11 06:33:47;;;;;;;5.50;5.10;;;;;;;7.18;100.00;100230.53;5017849;28;20555;-43
2023/01/11 06:36:13;;;;;;;5.35;4.95;;;;;;;7.17;100.00;100232.31;5019399;28;20739;-44
2023/01/11 06:38:39;;;;;;;5.78;5.28;;;;;;;7.17;100.00;100234.09;5016670;28;20204;-43
2023/01/11 06:41:09;;;;;;;4.82;4.50;;;;;;;7.19;100.00;100242.91;5012735;28;20172;-44
2023/01/11 06:43:37;;;;;;;5.00;4.60;;;;;;;7.19;100.00;100245.56;5009568;28;20177;-44
2023/01/11 06:46:02;;;;;;;4.50;4.20;;;;;;;7.19;100.00;100254.47;4995649;28;20291;-42
2023/01/11 06:48:28;;;;;;;4.80;4.45;;;;;;;7.19;100.00;100261.56;5009311;28;20267;-43
2023/01/11 06:50:56;;;;;;;5.05;4.65;;;;;;;7.19;100.00;100257.13;5007068;28;20180;-44
2023/01/11 06:53:23;;;;;;;4.30;4.00;;;;;;;7.20;100.00;100258.00;5008959;28;20188;-43
2023/01/11 06:55:53;;;;;;;4.75;4.35;;;;;;;7.25;100.00;100257.84;5010887;28;20630;-41
2023/01/11 06:58:21;;;;;;;4.15;3.85;;;;;;;7.22;100.00;100259.69;5006009;28;20230;-43
2023/01/11 07:00:46;;;;;;;4.85;4.45;;;;;;;7.23;100.00;100253.41;5010547;28;20177;-44
2023/01/11 07:03:12;;;;;;;4.85;4.45;;;;;;;7.25;100.00;100266.69;5014468;28;20195;-43
2023/01/11 07:05:38;;;;;;;4.60;4.22;;;;;;;7.27;100.00;100278.16;5018958;28;20212;-43
2023/01/11 07:08:04;;;;;;;4.70;4.30;;;;;;;7.27;100.00;100280.84;5020655;28;20189;-43
2023/01/11 07:10:30;;;;;;;4.25;3.95;;;;;;;7.30;100.00;100295.84;5016138;28;20183;-43
2023/01/11 07:12:55;;;;;;;6.30;4.07;;;;;;;7.30;100.00;100294.03;5016502;28;20187;-43
2023/01/11 07:15:21;;;;;;;4.35;4.03;;;;;;;7.29;100.00;100302.13;5012728;28;20214;-43
2023/01/11 07:17:48;;;;;;;4.10;3.80;;;;;;;7.30;100.00;100296.72;5021707;28;20282;-41
2023/01/11 07:20:13;;;;;;;3.75;3.45;;;;;;;7.29;100.00;100296.78;5016875;28;20567;-41
2023/01/11 07:22:39;;;;;;;3.95;3.65;;;;;;;7.31;100.00;100311.78;5018304;28;20191;-42
2023/01/11 07:25:05;;;;;;;3.80;3.50;;;;;;;7.32;100.00;100304.66;5013003;28;20204;-43
2023/01/11 07:27:31;;;;;;;4.07;3.78;;;;;;;7.37;100.00;100308.06;5012467;28;20257;-42
2023/01/11 07:29:58;;;;;;;3.47;3.28;;;;;;;7.39;100.00;100315.09;5014872;28;20192;-41
2023/01/11 07:32:26;;;;;;;4.07;3.78;;;;;;;7.39;100.00;100319.50;4998000;28;20185;-40
2023/01/11 07:34:53;;;;;;;4.32;3.92;;;;;;;7.41;100.00;100326.56;5008824;28;20224;-43
2023/01/11 07:37:18;;;;;;;3.70;3.40;;;;;;;7.41;100.00;100325.66;5011168;28;20184;-41
2023/01/11 07:39:43;;;;;;;4.00;3.70;;;;;;;7.41;100.00;100347.00;5009126;28;20558;-43
2023/01/11 07:44:54;;;;;;;4.20;3.83;;;;;;;7.44;100.00;100349.56;5011664;28;20238;-43
2023/01/11 07:47:20;;;;;;;4.07;3.78;;;;;;;7.45;100.00;100350.44;5010212;28;20203;-44
2023/01/11 07:49:45;;;;;;;4.40;4.00;;;;;;;7.37;100.00;100346.25;5007297;22;20230;-48
2023/01/11 07:52:10;;;;;;;5.28;4.18;;;;;;;7.42;100.00;100338.94;5019015;28;20260;-48
2023/01/11 07:54:36;;;;;;;4.50;4.10;;;;;;;7.39;100.00;100346.16;4997395;28;20422;-48
2023/01/11 07:57:01;;;;;;;4.90;4.40;;;;;;;7.36;100.00;100343.63;5006080;28;20636;-49
2023/01/11 07:59:27;;;;;;;4.97;4.30;;;;;;;7.31;100.00;100345.56;5010643;28;20203;-46
2023/01/11 08:01:53;;;;;;;6.78;3.80;;;;;;;7.37;100.00;100351.56;5007550;28;20192;-46
2023/01/11 08:04:18;;;;;;;6.22;4.60;;;;;;;7.37;100.00;100364.91;5006652;28;20271;-48
2023/01/11 08:06:44;;;;;;;7.28;4.55;;;;;;;7.37;100.00;100353.38;5002745;28;20208;-48
2023/01/11 08:09:09;;;;;;;6.85;4.80;;;;;;;7.38;100.00;100366.63;4995294;28;20182;-47
2023/01/11 08:17:08;;;;;;;7.43;5.30;;;;;;;7.42;100.00;100365.59;5003193;28;20234;-48
2023/01/11 08:19:33;;;;;;;7.88;5.38;;;;;;;7.45;100.00;100367.28;5001027;28;20189;-47
2023/01/11 08:21:59;;;;;;;7.60;5.43;;;;;;;7.47;100.00;100375.25;5003638;28;20184;-46
2023/01/11 08:24:24;;;;;;;6.72;5.25;;;;;;;7.49;100.00;100384.06;5005498;28;20201;-47
2023/01/11 08:26:50;;;;;;;9.50;6.15;;;;;;;7.50;100.00;100370.69;5004051;28;20213;-47
2023/01/11 08:29:15;;;;;;;7.15;5.68;;;;;;;7.52;100.00;100375.97;5003972;28;20193;-47
2023/01/11 08:31:45;;;;;;;8.48;6.47;;;;;;;7.54;100.00;100377.69;5001347;28;20189;-49
2023/01/11 08:34:11;;;;;;;12.05;6.35;;;;;;;7.57;100.00;100377.56;4997939;28;20241;-47
2023/01/11 08:36:36;;;;;;;12.32;6.20;;;;;;;7.63;100.00;100382.69;5003901;28;20208;-47
2023/01/11 08:39:02;;;;;;;10.25;6.70;;;;;;;7.58;100.00;100384.63;5003514;28;20187;-48
2023/01/11 08:41:28;;;;;;;11.90;6.20;;;;;;;7.63;100.00;100398.69;5000183;28;20644;-48
2023/01/11 08:43:53;;;;;;;10.32;6.22;;;;;;;7.65;100.00;100395.94;4998583;28;20191;-47
2023/01/11 08:46:19;;;;;;;14.63;6.00;;;;;;;7.65;100.00;100401.28;5000678;28;20252;-49
2023/01/11 08:48:47;;;;;;;14.57;5.85;;;;;;;7.71;100.00;100405.56;4995348;28;20705;-49
2023/01/11 08:51:13;;;;;;;10.73;5.95;;;;;;;7.71;100.00;100411.75;5006163;28;20284;-52
2023/01/11 08:53:39;;;;;;;10.98;5.20;;;;;;;7.76;100.00;100409.84;4999039;28;20272;-48
2023/01/11 08:56:05;;;;;;;19.88;6.40;;;;;;;7.81;100.00;100420.34;4999383;28;20239;-49
2023/01/11 08:58:30;;;;;;;14.20;5.10;;;;;;;7.83;100.00;100415.81;5002238;28;20185;-50
2023/01/11 09:01:02;;;;;;;17.13;5.72;;;;;;;7.84;100.00;100420.22;4998689;28;20243;-48
2023/01/11 09:03:30;;;;;;;18.15;5.68;;;;;;;7.83;100.00;100414.03;5007181;28;20556;-48
2023/01/11 09:05:56;;;;;;;19.02;4.53;;;;;;;7.86;100.00;100421.03;4998968;28;20637;-50
2023/01/11 09:08:24;;;;;;;17.77;4.82;;;;;;;7.82;100.00;100414.94;4998248;28;20193;-48
2023/01/11 09:10:49;;;;;;;26.60;4.40;;;;;;;7.84;100.00;100414.88;5007055;28;20193;-49
2023/01/11 09:13:15;;;;;;;22.00;4.38;;;;;;;7.85;100.00;100413.97;5004989;28;20184;-46
2023/01/11 09:15:40;;;;;;;17.40;3.95;;;;;;;7.86;100.00;100410.38;5001189;28;20200;-49
2023/01/11 09:18:06;;;;;;;17.52;4.20;;;;;;;7.92;100.00;100415.50;5000293;28;20672;-46
2023/01/11 09:20:32;;;;;;;13.98;3.65;;;;;;;7.88;100.00;100432.53;4999839;28;20240;-47
2023/01/11 09:23:01;;;;;;;16.77;3.95;;;;;;;7.86;100.00;100417.50;5004472;28;20201;-46
2023/01/11 09:25:30;;;;;;;15.48;3.40;;;;;;;7.92;100.00;100425.31;5001255;28;20221;-48
2023/01/11 09:27:55;;;;;;;18.00;4.45;;;;;;;7.89;100.00;100436.06;4991864;28;20223;-47
2023/01/11 09:30:22;;;;;;;15.98;3.60;;;;;;;7.88;100.00;100432.53;5010075;28;20566;-46
2023/01/11 09:32:49;;;;;;;22.58;4.22;;;;;;;7.88;100.00;100427.19;4999035;28;20197;-48
2023/01/11 09:35:16;;;;;;;14.57;3.17;;;;;;;7.89;100.00;100430.72;4999218;28;20221;-46
2023/01/11 09:37:53;;;;;;;21.48;3.30;;;;;;;7.84;100.00;100434.41;5005142;28;20185;-48
2023/01/11 09:40:40;;;;;;;22.35;4.30;;;;;;;7.86;100.00;100426.38;4999422;28;20589;-47
2023/01/11 09:43:11;;;;;;;21.35;3.05;;;;;;;7.89;100.00;100430.72;4995633;28;20300;-48
2023/01/11 09:45:45;;;;;;;18.83;3.30;;;;;;;7.88;100.00;100429.88;5000572;28;20697;-47
2023/01/11 09:48:31;;;;;;;28.38;4.07;;;;;;;7.89;100.00;100430.72;4997717;28;20200;-47
2023/01/11 09:50:58;;;;;;;15.38;3.20;;;;;;;7.93;100.00;100441.25;5001465;28;20193;-46
2023/01/11 09:53:34;;;;;;;17.33;3.30;;;;;;;7.92;100.00;100428.84;5001108;28;20213;-47
2023/01/11 09:56:04;;;;;;;25.80;3.33;;;;;;;7.90;100.00;100428.03;5007551;28;20192;-46
2023/01/11 09:58:57;;;;;;;26.27;4.10;;;;;;;7.87;100.00;100428.13;4998599;28;20205;-46
2023/01/11 10:01:38;;;;;;;22.08;3.05;;;;;;;7.86;100.00;100426.38;5002307;28;20196;-49
2023/01/11 10:04:25;;;;;;;22.90;3.40;;;;;;;7.84;100.00;100431.75;4998650;28;20208;-47
2023/01/11 10:06:50;;;;;;;20.05;2.88;;;;;;;7.80;100.00;100430.09;4995742;28;20204;-48
2023/01/11 10:09:25;;;;;;;22.45;4.13;;;;;;;7.82;100.00;100428.25;5001687;28;20181;-47
2023/01/11 10:12:08;;;;;;;19.55;3.42;;;;;;;7.81;100.00;100426.53;4998529;28;20190;-47
2023/01/11 10:14:49;;;;;;;17.92;3.35;;;;;;;7.84;100.00;100423.75;4999217;28;20551;-47
2023/01/11 10:17:39;;;;;;;20.92;3.30;;;;;;;7.75;100.00;100421.41;5003408;28;20176;-48
2023/01/11 10:20:34;;;;;;;19.15;2.83;;;;;;;7.90;100.00;100421.81;5001604;28;20176;-48
2023/01/11 10:23:27;;;;;;;19.50;3.47;;;;;;;7.87;100.00;100433.47;4994461;28;20192;-46
2023/01/11 10:26:00;;;;;;;28.05;3.33;;;;;;;7.91;100.00;100434.22;4994096;28;20209;-47
2023/01/11 10:28:30;;;;;;;21.70;3.70;;;;;;;7.87;100.00;100436.16;4995476;28;20221;-47
2023/01/11 10:31:47;;;;;;;19.30;3.10;;;;;;;7.93;100.00;100451.91;5004158;28;20187;-46
2023/01/11 10:42:24;;;;;;;20.35;3.25;;;;;;;7.98;100.00;100447.31;4996026;28;20186;-46
2023/01/11 10:45:04;;;;;;;19.58;3.03;;;;;;;8.01;100.00;100439.19;4991030;28;20230;-45
2023/01/11 10:47:36;;;;;;;21.50;3.17;;;;;;;8.00;100.00;100444.56;4997135;28;20237;-47
2023/01/11 10:50:13;;;;;;;16.02;2.78;;;;;;;7.98;100.00;100439.31;4997114;28;20193;-46
2023/01/11 10:52:50;;;;;;;17.50;3.33;;;;;;;8.01;100.00;100441.00;4996939;28;20189;-49
2023/01/11 10:55:35;;;;;;;18.95;3.22;;;;;;;8.00;100.00;100423.22;4999259;28;20255;-45
2023/01/11 10:58:29;;;;;;;16.70;2.75;;;;;;;8.05;100.00;100430.16;5000229;28;21119;-47
2023/01/11 11:01:07;;;;;;;18.60;2.70;;;;;;;8.04;100.00;100430.22;5001921;28;20276;-47
2023/01/11 11:03:56;;;;;;;17.23;3.10;;;;;;;8.03;100.00;100426.69;4995363;28;20185;-48
2023/01/11 11:06:42;;;;;;;17.92;3.28;;;;;;;8.02;100.00;100429.38;4995939;28;20208;-47
2023/01/11 11:09:25;;;;;;;17.42;2.80;;;;;;;8.00;100.00;100431.25;4995809;28;20238;-46
2023/01/11 11:11:59;;;;;;;22.27;3.00;;;;;;;8.00;100.00;100440.13;4998824;28;20184;-46
2023/01/11 11:14:57;;;;;;;21.63;3.17;;;;;;;7.97;100.00;100423.34;4994513;28;20235;-48
2023/01/11 11:17:22;;;;;;;15.25;2.97;;;;;;;7.94;100.00;100426.13;4996616;28;20234;-47
2023/01/11 11:19:48;;;;;;;16.02;2.65;;;;;;;7.94;100.00;100415.47;4997713;28;20177;-46
2023/01/11 11:22:14;;;;;;;15.02;2.63;;;;;;;7.94;100.00;100413.66;4996609;28;20272;-48
2023/01/11 11:24:49;;;;;;;15.25;3.00;;;;;;;7.96;100.00;100395.81;4998716;28;20630;-45
2023/01/11 11:27:24;;;;;;;14.35;3.03;;;;;;;7.99;100.00;100414.38;5000534;28;20231;-47
2023/01/11 11:29:55;;;;;;;16.83;3.47;;;;;;;7.98;100.00;100409.97;4999316;28;20564;-45
2023/01/11 11:32:33;;;;;;;20.88;3.38;;;;;;;7.97;100.00;100420.69;5005133;28;20211;-46
2023/01/11 11:34:58;;;;;;;11.57;2.95;;;;;;;8.08;100.00;100402.50;5005415;28;20224;-46
2023/01/11 11:37:34;;;;;;;11.40;2.60;;;;;;;8.04;100.00;100403.53;4999725;28;20181;-45
2023/01/11 11:40:00;;;;;;;16.25;2.97;;;;;;;7.98;100.00;100399.31;5000679;28;20216;-46
2023/01/11 11:42:26;;;;;;;15.50;3.20;;;;;;;8.00;100.00;100401.88;5002108;28;20678;-41
2023/01/11 11:45:10;;;;;;;16.83;2.88;;;;;;;8.01;100.00;100411.66;4999582;28;20208;-40
2023/01/11 11:47:36;;;;;;;15.43;3.40;;;;;;;7.99;100.00;100411.69;4997813;28;20196;-41
2023/01/11 11:50:23;;;;;;;16.23;3.00;;;;;;;8.02;100.00;100413.38;5008038;28;20679;-42
2023/01/11 11:53:04;;;;;;;16.77;3.50;;;;;;;8.00;100.00;100405.47;5001243;28;20217;-41
2023/01/11 11:55:32;;;;;;;10.57;2.72;;;;;;;8.00;100.00;100409.91;5008878;28;20216;-41
2023/01/11 11:58:04;;;;;;;17.73;3.75;;;;;;;8.01;100.00;100398.31;5004329;28;20655;-43
2023/01/11 12:00:42;;;;;;;20.08;3.58;;;;;;;7.99;100.00;100410.84;5004720;28;20228;-40
2023/01/11 12:03:29;;;;;;;14.98;2.65;;;;;;;8.03;100.00;100402.66;4996196;28;20498;-43
2023/01/11 12:06:02;;;;;;;20.88;3.13;;;;;;;8.04;100.00;100408.88;5002017;28;20290;-40
2023/01/11 12:08:31;;;;;;;12.90;3.28;;;;;;;8.08;100.00;100425.66;4999779;28;20240;-42
2023/01/11 12:11:01;;;;;;;13.63;2.63;;;;;;;8.05;100.00;100422.16;5001399;28;20283;-40
2023/01/11 12:13:32;;;;;;;17.33;2.88;;;;;;;8.04;100.00;100420.41;4989481;28;20193;-43
2023/01/11 12:16:07;;;;;;;14.43;2.63;;;;;;;8.08;100.00;100418.50;5004841;28;20194;-43
2023/01/11 12:18:41;;;;;;;14.82;2.63;;;;;;;8.00;100.00;100423.22;5002274;28;20302;-41